This is the latest recevied weather packets stored in our database for station/object WG5EEK. If no packets are shown the sender has not sent any weather packets the latest 10 day(s).
| Time | Temp. | Humidity | Pressure | Rain* | Wind** | Luminosity | Snow |
|---|---|---|---|---|---|---|---|
| 1777339082 | 27.78° C | 61% | 961.8 hPa | - | - | - | - |
| 1777335122 | 30° C | 60% | 957.1 hPa | - | - | - | - |
| 1777334402 | 30° C | 63% | 956.6 hPa | - | - | - | - |
| 1777332966 | 30° C | 64% | 956.1 hPa | - | - | - | - |
| 1777331882 | 30° C | 65% | 955.4 hPa | - | - | - | - |
| 1777330082 | 30.56° C | 63% | 954.9 hPa | - | - | - | - |
| 1777329362 | 30.56° C | 63% | 954.2 hPa | - | - | - | - |
| 1777326482 | 31.11° C | 63% | 953 hPa | - | - | - | - |
| 1777326123 | 30.56° C | 63% | 953.8 hPa | - | - | - | - |
| 1777324322 | 31.11° C | 63% | 953.2 hPa | - | - | - | - |
| 1777323242 | 31.11° C | 66% | 953.5 hPa | - | - | - | - |
| 1777318562 | 30.56° C | 71% | 954.3 hPa | - | - | - | - |
| 1777318227 | 30.56° C | 69% | 954.3 hPa | - | - | - | - |
| 1777317843 | 30° C | 70% | 954.9 hPa | - | - | - | - |
| 1777316762 | 30° C | 71% | 954.9 hPa | - | - | - | - |
| 1777315682 | 30° C | 72% | 955.4 hPa | - | - | - | - |
| 1777315322 | 30.56° C | 71% | 954.6 hPa | - | - | - | - |
| 1777313882 | 29.44° C | 74% | 955.9 hPa | - | - | - | - |
| 1777313522 | 29.44° C | 73% | 955.7 hPa | - | - | - | - |
| 1777313162 | 29.44° C | 75% | 956.2 hPa | - | - | - | - |
| 1777312442 | 29.44° C | 75% | 955.8 hPa | - | - | - | - |
| 1777311002 | 28.89° C | 78% | 957 hPa | - | - | - | - |
| 1777307402 | 27.78° C | 82% | 958.7 hPa | - | - | - | - |
| 1777305601 | 27.22° C | 84% | 959.6 hPa | - | - | - | - |
| 1777305241 | 27.22° C | 85% | 959.9 hPa | - | - | - | - |
* Rain since midnight (hover to see other rain measurements)
** Current wind speed in m/s (hover to see current wind gust speed)